createdAt,value
2023-01-19T00:04:09.237Z,99064.13
2023-01-19T00:09:13.424Z,99068.25
2023-01-19T00:14:16.213Z,99074.03
2023-01-19T00:19:18.982Z,99076.72
2023-01-19T00:24:23.099Z,99091.28
2023-01-19T00:29:25.874Z,99100.03
2023-01-19T00:34:36.989Z,99097.78
2023-01-19T00:39:41.160Z,99104.13
2023-01-19T00:44:43.970Z,99108.06
2023-01-19T00:49:46.700Z,99111.47
2023-01-19T00:54:50.940Z,99122.75
2023-01-19T00:59:53.713Z,99120.88
2023-01-19T01:04:56.693Z,99123.13
2023-01-19T01:10:00.913Z,99121.13
2023-01-19T01:15:03.856Z,99123.41
2023-01-19T01:20:07.261Z,99134.66
2023-01-19T01:25:11.578Z,99138.00
2023-01-19T01:30:14.861Z,99139.44
2023-01-19T01:35:17.711Z,99129.81
2023-01-19T01:40:22.218Z,99142.50
2023-01-19T01:45:30.214Z,99152.06
2023-01-19T01:50:34.644Z,99148.81
2023-01-19T01:55:40.842Z,99150.06
2023-01-19T02:01:01.204Z,99142.31
2023-01-19T02:06:04.375Z,99141.19
2023-01-19T02:11:26.210Z,99148.47
2023-01-19T02:16:29.941Z,99151.41
2023-01-19T02:21:35.811Z,99146.34
2023-01-19T02:26:41.775Z,99143.94
2023-01-19T02:31:45.245Z,99154.06
2023-01-19T02:36:49.918Z,99157.00
2023-01-19T02:41:55.733Z,99170.63
2023-01-19T02:46:58.473Z,99170.88
2023-01-19T02:52:01.332Z,99163.25
2023-01-19T02:57:39.135Z,99167.03
2023-01-19T03:02:50.877Z,99167.44
2023-01-19T03:07:57.881Z,99159.41
2023-01-19T03:13:03.366Z,99158.72
2023-01-19T03:18:08.154Z,99147.56
2023-01-19T03:23:12.149Z,99159.09
2023-01-19T03:28:15.052Z,99152.34
2023-01-19T03:33:22.817Z,99163.16
2023-01-19T03:38:26.624Z,99165.22
2023-01-19T03:43:29.387Z,99158.91
2023-01-19T03:48:33.551Z,99178.88
2023-01-19T03:53:36.294Z,99168.31
2023-01-19T03:58:39.089Z,99179.00
2023-01-19T04:03:43.228Z,99188.09
2023-01-19T04:08:46.145Z,99196.41
2023-01-19T04:13:48.906Z,99196.53
2023-01-19T04:18:53.444Z,99200.19
2023-01-19T04:23:56.217Z,99203.69
2023-01-19T04:28:59.184Z,99200.41
2023-01-19T04:34:03.359Z,99198.63
2023-01-19T04:39:08.308Z,99197.03
2023-01-19T04:44:11.201Z,99200.81
2023-01-19T04:49:15.497Z,99199.13
2023-01-19T04:54:18.278Z,99199.41
2023-01-19T04:59:21.463Z,99198.53
2023-01-19T05:04:25.752Z,99196.97
2023-01-19T05:09:28.474Z,99198.94
2023-01-19T05:14:31.212Z,99207.78
2023-01-19T05:19:35.409Z,99201.72
2023-01-19T05:24:38.133Z,99207.34
2023-01-19T05:29:40.879Z,99214.38
2023-01-19T05:34:44.946Z,99219.81
2023-01-19T05:39:47.726Z,99219.94
2023-01-19T05:44:50.466Z,99221.06
2023-01-19T05:49:55.061Z,99219.25
2023-01-19T05:54:57.853Z,99218.41
2023-01-19T06:00:00.591Z,99213.91
2023-01-19T06:05:05.477Z,99218.66
2023-01-19T06:10:09.846Z,99221.47
2023-01-19T06:15:14.370Z,99224.97
2023-01-19T06:20:18.651Z,99224.13
2023-01-19T06:25:21.793Z,99218.03
2023-01-19T06:30:24.536Z,99212.84
2023-01-19T06:35:28.623Z,99220.13
2023-01-19T06:40:31.501Z,99228.88
2023-01-19T06:45:34.423Z,99227.31
2023-01-19T06:50:38.667Z,99223.78
2023-01-19T06:55:41.421Z,99233.63
2023-01-19T07:00:44.280Z,99220.50
2023-01-19T07:05:49.854Z,99216.13
2023-01-19T07:11:26.318Z,99228.66
2023-01-19T07:16:15.712Z,99237.75
2023-01-19T07:21:19.860Z,99248.72
2023-01-19T07:26:24.902Z,99260.38
2023-01-19T07:31:27.927Z,99261.34
2023-01-19T07:36:32.200Z,99264.00
2023-01-19T07:41:35.575Z,99266.69
2023-01-19T07:46:41.223Z,99280.03
2023-01-19T07:51:45.364Z,99288.91
2023-01-19T07:56:48.116Z,99292.28
2023-01-19T08:01:51.085Z,99303.84
2023-01-19T08:06:55.467Z,99330.00
2023-01-19T08:11:58.342Z,99334.88
2023-01-19T08:17:01.203Z,99325.75
2023-01-19T08:22:06.048Z,99321.69
2023-01-19T08:27:09.923Z,99329.25
2023-01-19T08:32:12.824Z,99320.75
2023-01-19T08:37:17.055Z,99325.03
2023-01-19T08:42:19.877Z,99320.19
2023-01-19T08:47:22.677Z,99324.03
2023-01-19T08:52:26.848Z,99317.19
2023-01-19T08:57:29.713Z,99322.47
2023-01-19T09:02:32.656Z,99333.84
2023-01-19T09:07:36.923Z,99336.94
2023-01-19T09:12:39.779Z,99339.72
2023-01-19T09:17:42.716Z,99339.63
2023-01-19T09:22:47.537Z,99340.81
2023-01-19T09:27:50.378Z,99333.22
2023-01-19T09:32:53.145Z,99329.19
2023-01-19T09:37:57.280Z,99321.75
2023-01-19T09:43:05.006Z,99325.03
2023-01-19T09:48:14.182Z,99326.56
2023-01-19T09:53:21.963Z,99323.19
2023-01-19T09:58:25.159Z,99317.03
2023-01-19T10:03:28.470Z,99325.97
2023-01-19T10:08:35.390Z,99322.22
2023-01-19T10:13:40.483Z,99310.44
2023-01-19T10:18:47.634Z,99306.38
2023-01-19T10:23:53.233Z,99296.94
2023-01-19T10:28:58.596Z,99291.47
2023-01-19T10:34:01.517Z,99298.81
2023-01-19T10:39:06.340Z,99315.19
2023-01-19T10:44:10.673Z,99302.38
2023-01-19T10:49:25.694Z,99296.78
2023-01-19T10:54:31.090Z,99295.78
2023-01-19T10:59:35.814Z,99298.31
2023-01-19T11:04:38.724Z,99297.22
2023-01-19T11:09:43.016Z,99295.25
2023-01-19T11:14:45.897Z,99294.88
2023-01-19T11:19:57.309Z,99290.06
2023-01-19T11:25:02.258Z,99286.16
2023-01-19T11:30:10.326Z,99293.63
2023-01-19T11:35:34.203Z,99290.69
2023-01-19T11:40:38.368Z,99284.88
2023-01-19T11:45:41.423Z,99282.91
2023-01-19T11:50:44.664Z,99272.47
2023-01-19T11:55:50.204Z,99265.59
2023-01-19T12:00:54.481Z,99267.13
2023-01-19T12:05:59.857Z,99276.16
2023-01-19T12:11:04.108Z,99265.44
2023-01-19T12:16:08.511Z,99270.66
2023-01-19T12:21:11.250Z,99273.31
2023-01-19T12:26:45.106Z,99276.72
2023-01-19T12:31:49.932Z,99274.88
2023-01-19T12:36:54.404Z,99268.53
2023-01-19T12:42:07.884Z,99269.38
2023-01-19T12:47:28.311Z,99264.75
2023-01-19T12:52:33.975Z,99257.41
2023-01-19T12:57:39.669Z,99265.16
2023-01-19T13:02:43.517Z,99268.97
2023-01-19T13:08:15.132Z,99270.94
2023-01-19T13:13:20.353Z,99278.69
2023-01-19T13:18:23.572Z,99278.69
2023-01-19T13:23:27.189Z,99279.41
2023-01-19T13:28:34.974Z,99287.19
2023-01-19T13:33:45.066Z,99283.63
2023-01-19T13:38:48.165Z,99286.59
2023-01-19T13:43:55.945Z,99296.63
2023-01-19T13:48:59.923Z,99285.59
2023-01-19T13:54:02.905Z,99295.22
2023-01-19T13:59:11.652Z,99297.28
2023-01-19T14:04:28.281Z,99299.97
2023-01-19T14:09:31.362Z,99294.75
2023-01-19T14:14:35.665Z,99303.66
2023-01-19T14:19:50.877Z,99307.31
2023-01-19T14:24:53.719Z,99310.97
2023-01-19T14:29:57.867Z,99321.09
2023-01-19T14:35:14.946Z,99320.41
2023-01-19T14:40:19.333Z,99318.00
2023-01-19T14:45:24.900Z,99321.94
2023-01-19T14:50:28.690Z,99334.22
2023-01-19T14:55:36.353Z,99333.50
2023-01-19T15:00:40.603Z,99337.88
2023-01-19T15:05:44.883Z,99338.00
2023-01-19T15:10:47.727Z,99343.50
2023-01-19T15:15:51.931Z,99340.25
2023-01-19T15:20:55.104Z,99335.28
2023-01-19T15:26:00.314Z,99340.91
2023-01-19T15:31:04.702Z,99339.22
2023-01-19T15:36:07.925Z,99342.03
2023-01-19T15:41:14.042Z,99354.81
2023-01-19T15:46:18.601Z,99350.44
2023-01-19T15:51:22.104Z,99354.09
2023-01-19T15:56:26.070Z,99359.59
2023-01-19T16:01:32.153Z,99343.94
2023-01-19T16:06:35.073Z,99354.38
2023-01-19T16:11:38.788Z,99354.38
2023-01-19T16:16:44.793Z,99356.91
2023-01-19T16:21:47.614Z,99361.03
2023-01-19T16:26:50.404Z,99362.47
2023-01-19T16:31:54.647Z,99369.25
2023-01-19T16:36:57.506Z,99372.66
2023-01-19T16:42:00.391Z,99371.53
2023-01-19T16:47:04.529Z,99381.00
2023-01-19T16:52:07.306Z,99384.13
2023-01-19T16:57:10.341Z,99382.59
2023-01-19T17:02:14.659Z,99386.31
2023-01-19T17:07:19.136Z,99380.00
2023-01-19T17:12:22.315Z,99383.09
2023-01-19T17:17:26.489Z,99384.78
2023-01-19T17:22:29.293Z,99395.25
2023-01-19T17:27:32.097Z,99392.69
2023-01-19T17:32:36.876Z,99387.63
2023-01-19T17:37:39.672Z,99391.44
2023-01-19T17:42:42.844Z,99397.22
2023-01-19T17:47:48.756Z,99387.09
2023-01-19T17:52:51.706Z,99398.50
2023-01-19T17:58:09.601Z,99403.03
2023-01-19T18:03:13.769Z,99405.69
2023-01-19T18:08:16.643Z,99411.78
2023-01-19T18:13:19.480Z,99413.75
2023-01-19T18:18:23.614Z,99413.47
2023-01-19T18:23:26.463Z,99414.06
2023-01-19T18:28:29.502Z,99416.47
2023-01-19T18:33:33.964Z,99419.16
2023-01-19T18:38:37.138Z,99414.63
2023-01-19T18:43:39.966Z,99424.09
2023-01-19T18:48:44.376Z,99424.97
2023-01-19T18:53:47.327Z,99413.13
2023-01-19T18:58:50.117Z,99425.53
2023-01-19T19:03:54.284Z,99434.28
2023-01-19T19:08:57.937Z,99437.53
2023-01-19T19:14:02.074Z,99427.94
2023-01-19T19:19:07.221Z,99441.09
2023-01-19T19:24:11.288Z,99441.94
2023-01-19T19:29:14.077Z,99454.50
2023-01-19T19:34:18.207Z,99455.06
2023-01-19T19:39:20.999Z,99460.28
2023-01-19T19:44:23.791Z,99466.50
2023-01-19T19:49:28.341Z,99470.16
2023-01-19T19:54:31.599Z,99477.81
2023-01-19T19:59:34.770Z,99491.47
2023-01-19T20:04:39.022Z,99486.13
2023-01-19T20:09:41.883Z,99499.53
2023-01-19T20:14:44.989Z,99503.75
2023-01-19T20:19:49.320Z,99514.38
2023-01-19T20:24:52.306Z,99516.31
2023-01-19T20:29:58.036Z,99510.97
2023-01-19T20:35:02.351Z,99521.28
2023-01-19T20:40:05.834Z,99519.75
2023-01-19T20:45:09.262Z,99525.81
2023-01-19T20:50:13.723Z,99527.66
2023-01-19T20:55:16.612Z,99534.72
2023-01-19T21:00:20.155Z,99538.09
2023-01-19T21:05:24.283Z,99552.22
2023-01-19T21:10:27.465Z,99558.56
2023-01-19T21:15:30.274Z,99561.84
2023-01-19T21:20:34.417Z,99567.59
2023-01-19T21:25:38.335Z,99566.47
2023-01-19T21:30:41.320Z,99568.44
2023-01-19T21:35:52.114Z,99585.22
2023-01-19T21:40:55.392Z,99593.56
2023-01-19T21:46:00.276Z,99594.84
2023-01-19T21:51:04.594Z,99607.06
2023-01-19T21:56:08.009Z,99607.59
2023-01-19T22:01:12.606Z,99617.72
2023-01-19T22:06:16.823Z,99624.09
2023-01-19T22:11:20.361Z,99621.22
2023-01-19T22:16:23.646Z,99622.19
2023-01-19T22:21:29.010Z,99626.25
2023-01-19T22:26:32.147Z,99635.69
2023-01-19T22:31:35.202Z,99637.06
2023-01-19T22:36:39.419Z,99636.47
2023-01-19T22:41:43.148Z,99637.31
2023-01-19T22:46:45.954Z,99642.72
2023-01-19T22:51:50.071Z,99643.84
2023-01-19T22:56:52.823Z,99635.38
2023-01-19T23:01:55.734Z,99635.16
2023-01-19T23:06:59.954Z,99646.25
2023-01-19T23:12:02.967Z,99643.25
2023-01-19T23:17:05.746Z,99643.78
2023-01-19T23:22:09.835Z,99648.66
2023-01-19T23:27:12.761Z,99653.56
2023-01-19T23:32:15.503Z,99663.03
2023-01-19T23:37:19.574Z,99665.13
2023-01-19T23:42:22.392Z,99669.78
2023-01-19T23:47:25.156Z,99667.59
2023-01-19T23:52:29.322Z,99669.69
2023-01-19T23:57:32.508Z,99662.72
